Thomson, New York
Current Conditions -  °F | °C
As of 2:11 AM on Saturday 25 Oct 2014 (Local Time) from KGFL Reporting Station
Haze Haze  
Wind Chill: 39°   Ceiling: 200
Heat Index: 43°   Visibility: 0.75mi
Dew Point: 41°   Wind: 6mph
Humidity: 93%   Direction: 210°SSW
Pressure: 29.83"   Gusts: NA
Location:  43.09°N, 73.5018°W
Report Text: KGFL 250611Z AUTO 21005KT 3/4SM BR OVC002 06/05 A2983 RMK AO2 T00610050
Loading
Personal Weather Stations






























Interactive Weather Map
Tropical Storm Tracking
New forecast layout! Learn more

10-Day Weather Forecast

Advertisements
Track Severe Weather on mobile